sensor_id;sensor_type;location;lat;lon;timestamp;P1;durP1;ratioP1;P2;durP2;ratioP2
74512;SDS011;62992;52.052;8.550;2022-10-23T00:02:38;12.52;;;6.22;;
74512;SDS011;62992;52.052;8.550;2022-10-23T00:05:22;12.40;;;6.00;;
74512;SDS011;62992;52.052;8.550;2022-10-23T00:08:06;14.38;;;6.78;;
74512;SDS011;62992;52.052;8.550;2022-10-23T00:10:50;8.88;;;5.65;;
74512;SDS011;62992;52.052;8.550;2022-10-23T00:13:34;9.98;;;6.05;;
74512;SDS011;62992;52.052;8.550;2022-10-23T00:16:18;9.73;;;5.47;;
74512;SDS011;62992;52.052;8.550;2022-10-23T00:19:03;12.95;;;6.35;;
74512;SDS011;62992;52.052;8.550;2022-10-23T00:21:47;10.35;;;5.65;;
74512;SDS011;62992;52.052;8.550;2022-10-23T00:24:36;11.15;;;5.68;;
74512;SDS011;62992;52.052;8.550;2022-10-23T00:27:20;8.98;;;5.70;;
74512;SDS011;62992;52.052;8.550;2022-10-23T00:30:05;10.50;;;5.95;;
74512;SDS011;62992;52.052;8.550;2022-10-23T00:32:49;10.70;;;5.55;;
74512;SDS011;62992;52.052;8.550;2022-10-23T00:35:33;12.07;;;5.93;;
74512;SDS011;62992;52.052;8.550;2022-10-23T00:38:17;10.05;;;5.95;;
74512;SDS011;62992;52.052;8.550;2022-10-23T00:41:02;8.68;;;5.45;;
74512;SDS011;62992;52.052;8.550;2022-10-23T00:47:12;8.10;;;5.38;;
74512;SDS011;62992;52.052;8.550;2022-10-23T00:49:56;12.20;;;5.97;;
74512;SDS011;62992;52.052;8.550;2022-10-23T00:55:29;8.68;;;5.03;;
74512;SDS011;62992;52.052;8.550;2022-10-23T00:58:18;7.75;;;5.47;;
74512;SDS011;62992;52.052;8.550;2022-10-23T01:01:13;9.23;;;5.60;;
74512;SDS011;62992;52.052;8.550;2022-10-23T01:04:01;8.88;;;5.22;;
74512;SDS011;62992;52.052;8.550;2022-10-23T01:10:05;9.70;;;5.40;;
74512;SDS011;62992;52.052;8.550;2022-10-23T01:16:20;9.07;;;5.28;;
74512;SDS011;62992;52.052;8.550;2022-10-23T01:26:06;9.15;;;6.00;;
74512;SDS011;62992;52.052;8.550;2022-10-23T01:31:52;8.98;;;5.93;;
74512;SDS011;62992;52.052;8.550;2022-10-23T01:37:54;9.32;;;5.93;;
74512;SDS011;62992;52.052;8.550;2022-10-23T01:40:54;8.48;;;5.60;;
74512;SDS011;62992;52.052;8.550;2022-10-23T01:43:50;12.18;;;6.22;;
74512;SDS011;62992;52.052;8.550;2022-10-23T01:46:42;7.22;;;5.38;;
74512;SDS011;62992;52.052;8.550;2022-10-23T01:49:28;10.65;;;5.70;;
74512;SDS011;62992;52.052;8.550;2022-10-23T01:52:13;11.05;;;6.03;;
74512;SDS011;62992;52.052;8.550;2022-10-23T01:55:00;9.10;;;6.13;;
74512;SDS011;62992;52.052;8.550;2022-10-23T01:57:44;10.30;;;6.07;;
74512;SDS011;62992;52.052;8.550;2022-10-23T02:00:31;11.07;;;6.13;;
74512;SDS011;62992;52.052;8.550;2022-10-23T02:03:17;12.15;;;6.18;;
74512;SDS011;62992;52.052;8.550;2022-10-23T02:06:02;9.32;;;5.78;;
74512;SDS011;62992;52.052;8.550;2022-10-23T02:08:46;8.95;;;5.60;;
74512;SDS011;62992;52.052;8.550;2022-10-23T02:11:31;10.38;;;5.78;;
74512;SDS011;62992;52.052;8.550;2022-10-23T02:14:39;10.57;;;6.10;;
74512;SDS011;62992;52.052;8.550;2022-10-23T02:20:53;11.13;;;6.03;;
74512;SDS011;62992;52.052;8.550;2022-10-23T02:23:50;21.48;;;6.00;;
74512;SDS011;62992;52.052;8.550;2022-10-23T02:26:56;8.60;;;4.97;;
74512;SDS011;62992;52.052;8.550;2022-10-23T02:29:52;9.10;;;5.22;;
74512;SDS011;62992;52.052;8.550;2022-10-23T02:32:41;6.80;;;5.13;;
74512;SDS011;62992;52.052;8.550;2022-10-23T02:35:29;10.80;;;5.47;;
74512;SDS011;62992;52.052;8.550;2022-10-23T02:38:34;11.18;;;5.22;;
74512;SDS011;62992;52.052;8.550;2022-10-23T02:53:30;8.60;;;5.22;;
74512;SDS011;62992;52.052;8.550;2022-10-23T02:56:50;12.98;;;5.53;;
74512;SDS011;62992;52.052;8.550;2022-10-23T02:59:50;9.40;;;5.15;;
74512;SDS011;62992;52.052;8.550;2022-10-23T03:05:43;8.43;;;5.22;;
74512;SDS011;62992;52.052;8.550;2022-10-23T03:08:28;9.63;;;5.15;;
74512;SDS011;62992;52.052;8.550;2022-10-23T03:11:12;8.38;;;5.13;;
74512;SDS011;62992;52.052;8.550;2022-10-23T03:13:56;8.93;;;5.55;;
74512;SDS011;62992;52.052;8.550;2022-10-23T03:16:40;8.82;;;5.05;;
74512;SDS011;62992;52.052;8.550;2022-10-23T03:19:24;6.68;;;5.00;;
74512;SDS011;62992;52.052;8.550;2022-10-23T03:22:08;9.48;;;4.78;;
74512;SDS011;62992;52.052;8.550;2022-10-23T03:24:52;9.40;;;5.10;;
74512;SDS011;62992;52.052;8.550;2022-10-23T03:27:36;8.63;;;5.32;;
74512;SDS011;62992;52.052;8.550;2022-10-23T03:30:20;9.25;;;5.38;;
74512;SDS011;62992;52.052;8.550;2022-10-23T03:33:04;9.38;;;5.57;;
74512;SDS011;62992;52.052;8.550;2022-10-23T03:35:48;10.40;;;5.50;;
74512;SDS011;62992;52.052;8.550;2022-10-23T03:38:32;7.47;;;5.22;;
74512;SDS011;62992;52.052;8.550;2022-10-23T03:41:16;10.05;;;5.07;;
74512;SDS011;62992;52.052;8.550;2022-10-23T03:44:00;8.25;;;5.10;;
74512;SDS011;62992;52.052;8.550;2022-10-23T03:46:44;7.80;;;5.28;;
74512;SDS011;62992;52.052;8.550;2022-10-23T03:49:29;8.20;;;5.32;;
74512;SDS011;62992;52.052;8.550;2022-10-23T03:52:14;9.50;;;5.00;;
74512;SDS011;62992;52.052;8.550;2022-10-23T03:54:57;11.98;;;5.28;;
74512;SDS011;62992;52.052;8.550;2022-10-23T03:57:42;6.95;;;4.82;;
74512;SDS011;62992;52.052;8.550;2022-10-23T04:00:26;7.80;;;4.65;;
74512;SDS011;62992;52.052;8.550;2022-10-23T04:03:10;8.25;;;4.80;;
74512;SDS011;62992;52.052;8.550;2022-10-23T04:05:54;8.30;;;5.22;;
74512;SDS011;62992;52.052;8.550;2022-10-23T04:08:38;10.32;;;5.20;;
74512;SDS011;62992;52.052;8.550;2022-10-23T04:11:22;9.55;;;5.15;;
74512;SDS011;62992;52.052;8.550;2022-10-23T04:14:06;9.27;;;4.82;;
74512;SDS011;62992;52.052;8.550;2022-10-23T04:16:50;8.85;;;4.80;;
74512;SDS011;62992;52.052;8.550;2022-10-23T04:19:34;7.95;;;5.32;;
74512;SDS011;62992;52.052;8.550;2022-10-23T04:22:18;8.75;;;5.32;;
74512;SDS011;62992;52.052;8.550;2022-10-23T04:25:02;7.68;;;5.40;;
74512;SDS011;62992;52.052;8.550;2022-10-23T04:27:47;16.83;;;5.85;;
74512;SDS011;62992;52.052;8.550;2022-10-23T04:30:31;11.05;;;6.22;;
74512;SDS011;62992;52.052;8.550;2022-10-23T04:33:15;10.48;;;5.35;;
74512;SDS011;62992;52.052;8.550;2022-10-23T04:36:00;9.63;;;5.70;;
74512;SDS011;62992;52.052;8.550;2022-10-23T04:38:44;13.32;;;5.40;;
74512;SDS011;62992;52.052;8.550;2022-10-23T04:41:28;6.80;;;4.72;;
74512;SDS011;62992;52.052;8.550;2022-10-23T04:44:12;9.43;;;5.18;;
74512;SDS011;62992;52.052;8.550;2022-10-23T04:46:57;9.65;;;5.18;;
74512;SDS011;62992;52.052;8.550;2022-10-23T04:49:40;8.75;;;5.03;;
74512;SDS011;62992;52.052;8.550;2022-10-23T04:52:25;6.82;;;4.65;;
74512;SDS011;62992;52.052;8.550;2022-10-23T04:55:09;8.57;;;5.38;;
74512;SDS011;62992;52.052;8.550;2022-10-23T04:57:53;10.52;;;4.70;;
74512;SDS011;62992;52.052;8.550;2022-10-23T05:00:37;8.27;;;4.97;;
74512;SDS011;62992;52.052;8.550;2022-10-23T05:03:21;6.38;;;4.90;;
74512;SDS011;62992;52.052;8.550;2022-10-23T05:06:06;14.85;;;4.93;;
74512;SDS011;62992;52.052;8.550;2022-10-23T05:08:50;7.50;;;4.47;;
74512;SDS011;62992;52.052;8.550;2022-10-23T05:11:34;6.50;;;4.65;;
74512;SDS011;62992;52.052;8.550;2022-10-23T05:14:18;7.43;;;5.30;;
74512;SDS011;62992;52.052;8.550;2022-10-23T05:17:03;8.60;;;4.47;;
74512;SDS011;62992;52.052;8.550;2022-10-23T05:20:00;7.53;;;4.55;;
74512;SDS011;62992;52.052;8.550;2022-10-23T05:22:48;9.38;;;5.15;;
74512;SDS011;62992;52.052;8.550;2022-10-23T05:25:35;7.18;;;4.75;;
74512;SDS011;62992;52.052;8.550;2022-10-23T05:28:19;7.93;;;4.88;;
74512;SDS011;62992;52.052;8.550;2022-10-23T05:31:04;8.05;;;4.70;;
74512;SDS011;62992;52.052;8.550;2022-10-23T05:33:49;12.20;;;4.78;;
74512;SDS011;62992;52.052;8.550;2022-10-23T05:36:34;5.93;;;4.37;;
74512;SDS011;62992;52.052;8.550;2022-10-23T05:39:19;8.27;;;4.90;;
74512;SDS011;62992;52.052;8.550;2022-10-23T05:42:04;6.72;;;4.35;;
74512;SDS011;62992;52.052;8.550;2022-10-23T05:44:49;9.15;;;4.72;;
74512;SDS011;62992;52.052;8.550;2022-10-23T05:47:33;8.23;;;4.75;;
74512;SDS011;62992;52.052;8.550;2022-10-23T05:50:17;7.82;;;4.63;;
74512;SDS011;62992;52.052;8.550;2022-10-23T05:53:01;6.28;;;4.20;;
74512;SDS011;62992;52.052;8.550;2022-10-23T05:55:45;6.25;;;4.57;;
74512;SDS011;62992;52.052;8.550;2022-10-23T05:58:29;7.95;;;4.72;;
74512;SDS011;62992;52.052;8.550;2022-10-23T06:01:13;8.70;;;4.68;;
74512;SDS011;62992;52.052;8.550;2022-10-23T06:03:58;10.38;;;4.28;;
74512;SDS011;62992;52.052;8.550;2022-10-23T06:06:44;9.43;;;4.20;;
74512;SDS011;62992;52.052;8.550;2022-10-23T06:12:13;9.10;;;4.68;;
74512;SDS011;62992;52.052;8.550;2022-10-23T06:14:57;9.68;;;4.40;;
74512;SDS011;62992;52.052;8.550;2022-10-23T06:17:42;10.32;;;5.38;;
74512;SDS011;62992;52.052;8.550;2022-10-23T06:20:26;7.68;;;4.80;;
74512;SDS011;62992;52.052;8.550;2022-10-23T06:23:10;8.20;;;4.47;;
74512;SDS011;62992;52.052;8.550;2022-10-23T06:25:54;7.82;;;4.45;;
74512;SDS011;62992;52.052;8.550;2022-10-23T06:28:39;8.77;;;5.18;;
74512;SDS011;62992;52.052;8.550;2022-10-23T06:31:23;9.88;;;5.30;;
74512;SDS011;62992;52.052;8.550;2022-10-23T06:34:11;9.30;;;5.72;;
74512;SDS011;62992;52.052;8.550;2022-10-23T06:36:55;10.80;;;5.05;;
74512;SDS011;62992;52.052;8.550;2022-10-23T06:39:39;10.38;;;6.18;;
74512;SDS011;62992;52.052;8.550;2022-10-23T06:42:24;11.45;;;5.38;;
74512;SDS011;62992;52.052;8.550;2022-10-23T06:45:08;9.20;;;5.57;;
74512;SDS011;62992;52.052;8.550;2022-10-23T06:47:52;11.63;;;5.80;;
74512;SDS011;62992;52.052;8.550;2022-10-23T06:50:36;11.77;;;5.40;;
74512;SDS011;62992;52.052;8.550;2022-10-23T06:53:21;8.55;;;5.45;;
74512;SDS011;62992;52.052;8.550;2022-10-23T06:56:07;10.30;;;5.82;;
74512;SDS011;62992;52.052;8.550;2022-10-23T06:58:52;10.10;;;5.28;;
74512;SDS011;62992;52.052;8.550;2022-10-23T07:01:36;8.80;;;5.60;;
74512;SDS011;62992;52.052;8.550;2022-10-23T07:04:20;12.45;;;5.82;;
74512;SDS011;62992;52.052;8.550;2022-10-23T07:07:04;9.82;;;5.78;;
74512;SDS011;62992;52.052;8.550;2022-10-23T07:09:49;8.93;;;5.28;;
74512;SDS011;62992;52.052;8.550;2022-10-23T07:12:33;10.48;;;6.15;;
74512;SDS011;62992;52.052;8.550;2022-10-23T07:15:17;9.05;;;5.35;;
74512;SDS011;62992;52.052;8.550;2022-10-23T07:18:01;11.82;;;6.05;;
74512;SDS011;62992;52.052;8.550;2022-10-23T07:20:45;10.27;;;5.68;;
74512;SDS011;62992;52.052;8.550;2022-10-23T07:23:32;11.23;;;5.85;;
74512;SDS011;62992;52.052;8.550;2022-10-23T07:26:16;8.02;;;4.97;;
74512;SDS011;62992;52.052;8.550;2022-10-23T07:29:00;8.65;;;4.88;;
74512;SDS011;62992;52.052;8.550;2022-10-23T07:31:44;10.80;;;4.78;;
74512;SDS011;62992;52.052;8.550;2022-10-23T07:34:28;10.60;;;5.13;;
74512;SDS011;62992;52.052;8.550;2022-10-23T07:37:14;7.25;;;4.53;;
74512;SDS011;62992;52.052;8.550;2022-10-23T07:39:59;7.97;;;5.10;;
74512;SDS011;62992;52.052;8.550;2022-10-23T07:42:43;8.90;;;4.95;;
74512;SDS011;62992;52.052;8.550;2022-10-23T07:45:27;7.53;;;4.55;;
74512;SDS011;62992;52.052;8.550;2022-10-23T07:48:11;7.55;;;4.68;;
74512;SDS011;62992;52.052;8.550;2022-10-23T07:50:56;8.88;;;4.93;;
74512;SDS011;62992;52.052;8.550;2022-10-23T07:53:43;9.18;;;4.75;;
74512;SDS011;62992;52.052;8.550;2022-10-23T07:56:29;9.90;;;4.60;;
74512;SDS011;62992;52.052;8.550;2022-10-23T07:59:14;5.57;;;4.28;;
74512;SDS011;62992;52.052;8.550;2022-10-23T08:01:58;7.28;;;4.40;;
74512;SDS011;62992;52.052;8.550;2022-10-23T08:04:42;7.93;;;3.97;;
74512;SDS011;62992;52.052;8.550;2022-10-23T08:07:27;6.88;;;4.57;;
74512;SDS011;62992;52.052;8.550;2022-10-23T08:10:11;9.43;;;4.65;;
74512;SDS011;62992;52.052;8.550;2022-10-23T08:12:55;8.98;;;4.53;;
74512;SDS011;62992;52.052;8.550;2022-10-23T08:15:39;6.93;;;4.35;;
74512;SDS011;62992;52.052;8.550;2022-10-23T08:18:25;7.60;;;4.03;;
74512;SDS011;62992;52.052;8.550;2022-10-23T08:21:09;4.53;;;3.63;;
74512;SDS011;62992;52.052;8.550;2022-10-23T08:23:55;6.15;;;4.25;;
74512;SDS011;62992;52.052;8.550;2022-10-23T08:26:40;8.50;;;4.20;;
74512;SDS011;62992;52.052;8.550;2022-10-23T08:29:24;7.47;;;3.95;;
74512;SDS011;62992;52.052;8.550;2022-10-23T08:32:08;9.50;;;4.70;;
74512;SDS011;62992;52.052;8.550;2022-10-23T08:34:52;6.85;;;4.13;;
74512;SDS011;62992;52.052;8.550;2022-10-23T08:37:36;6.47;;;4.32;;
74512;SDS011;62992;52.052;8.550;2022-10-23T08:40:21;6.38;;;4.60;;
74512;SDS011;62992;52.052;8.550;2022-10-23T08:45:55;10.77;;;4.95;;
74512;SDS011;62992;52.052;8.550;2022-10-23T08:48:48;10.43;;;4.78;;
74512;SDS011;62992;52.052;8.550;2022-10-23T08:51:36;8.82;;;4.80;;
74512;SDS011;62992;52.052;8.550;2022-10-23T08:57:32;8.20;;;4.18;;
74512;SDS011;62992;52.052;8.550;2022-10-23T09:00:21;5.57;;;4.63;;
74512;SDS011;62992;52.052;8.550;2022-10-23T09:03:05;5.55;;;4.57;;
74512;SDS011;62992;52.052;8.550;2022-10-23T09:05:53;5.97;;;4.35;;
74512;SDS011;62992;52.052;8.550;2022-10-23T09:23:06;6.90;;;4.40;;
74512;SDS011;62992;52.052;8.550;2022-10-23T09:26:09;6.85;;;3.63;;
74512;SDS011;62992;52.052;8.550;2022-10-23T09:29:01;6.10;;;3.78;;
74512;SDS011;62992;52.052;8.550;2022-10-23T09:31:58;5.72;;;3.55;;
74512;SDS011;62992;52.052;8.550;2022-10-23T09:37:43;5.35;;;3.47;;
74512;SDS011;62992;52.052;8.550;2022-10-23T09:40:30;5.63;;;3.20;;
74512;SDS011;62992;52.052;8.550;2022-10-23T09:43:25;5.28;;;2.67;;
74512;SDS011;62992;52.052;8.550;2022-10-23T09:46:10;6.18;;;3.05;;
74512;SDS011;62992;52.052;8.550;2022-10-23T09:48:57;4.63;;;2.30;;
74512;SDS011;62992;52.052;8.550;2022-10-23T09:51:47;7.10;;;2.20;;
74512;SDS011;62992;52.052;8.550;2022-10-23T09:54:49;10.20;;;2.42;;
74512;SDS011;62992;52.052;8.550;2022-10-23T09:57:44;5.30;;;2.13;;
74512;SDS011;62992;52.052;8.550;2022-10-23T10:00:29;3.85;;;2.53;;
74512;SDS011;62992;52.052;8.550;2022-10-23T10:03:18;4.55;;;1.90;;
74512;SDS011;62992;52.052;8.550;2022-10-23T10:06:05;4.65;;;2.40;;
74512;SDS011;62992;52.052;8.550;2022-10-23T10:09:09;7.00;;;2.33;;
74512;SDS011;62992;52.052;8.550;2022-10-23T10:11:57;4.70;;;1.92;;
74512;SDS011;62992;52.052;8.550;2022-10-23T10:21:25;2.58;;;1.60;;
74512;SDS011;62992;52.052;8.550;2022-10-23T10:27:32;8.75;;;4.72;;
74512;SDS011;62992;52.052;8.550;2022-10-23T10:30:19;6.55;;;2.20;;
74512;SDS011;62992;52.052;8.550;2022-10-23T10:33:13;4.43;;;1.60;;
74512;SDS011;62992;52.052;8.550;2022-10-23T10:45:32;6.97;;;1.52;;
74512;SDS011;62992;52.052;8.550;2022-10-23T10:51:26;5.95;;;2.10;;
74512;SDS011;62992;52.052;8.550;2022-10-23T10:57:28;6.28;;;2.25;;
74512;SDS011;62992;52.052;8.550;2022-10-23T11:00:37;2.85;;;1.52;;
74512;SDS011;62992;52.052;8.550;2022-10-23T11:03:26;4.05;;;1.52;;
74512;SDS011;62992;52.052;8.550;2022-10-23T11:06:14;4.10;;;1.40;;
74512;SDS011;62992;52.052;8.550;2022-10-23T11:09:24;4.40;;;1.35;;
74512;SDS011;62992;52.052;8.550;2022-10-23T11:12:15;3.08;;;1.75;;
74512;SDS011;62992;52.052;8.550;2022-10-23T11:15:03;3.58;;;1.52;;
74512;SDS011;62992;52.052;8.550;2022-10-23T11:18:00;3.25;;;1.52;;
74512;SDS011;62992;52.052;8.550;2022-10-23T11:32:27;3.38;;;1.98;;
74512;SDS011;62992;52.052;8.550;2022-10-23T11:35:35;3.75;;;1.88;;
74512;SDS011;62992;52.052;8.550;2022-10-23T11:38:32;5.15;;;2.03;;
74512;SDS011;62992;52.052;8.550;2022-10-23T11:41:23;3.90;;;2.50;;
74512;SDS011;62992;52.052;8.550;2022-10-23T11:44:23;3.88;;;2.20;;
74512;SDS011;62992;52.052;8.550;2022-10-23T11:47:37;3.40;;;1.90;;
74512;SDS011;62992;52.052;8.550;2022-10-23T11:50:36;4.45;;;1.80;;
74512;SDS011;62992;52.052;8.550;2022-10-23T12:00:17;3.38;;;1.45;;
74512;SDS011;62992;52.052;8.550;2022-10-23T12:02:31;2.85;;;1.30;;
74512;SDS011;62992;52.052;8.550;2022-10-23T12:05:33;3.55;;;1.20;;
74512;SDS011;62992;52.052;8.550;2022-10-23T12:08:24;4.85;;;1.38;;
74512;SDS011;62992;52.052;8.550;2022-10-23T12:11:24;2.33;;;1.10;;
74512;SDS011;62992;52.052;8.550;2022-10-23T12:14:25;4.43;;;1.63;;
74512;SDS011;62992;52.052;8.550;2022-10-23T12:17:35;3.10;;;1.40;;
74512;SDS011;62992;52.052;8.550;2022-10-23T12:20:34;2.58;;;1.27;;
74512;SDS011;62992;52.052;8.550;2022-10-23T12:26:43;3.50;;;1.27;;
74512;SDS011;62992;52.052;8.550;2022-10-23T12:35:52;3.15;;;1.17;;
74512;SDS011;62992;52.052;8.550;2022-10-23T12:38:43;4.00;;;1.42;;
74512;SDS011;62992;52.052;8.550;2022-10-23T12:41:29;3.88;;;1.45;;
74512;SDS011;62992;52.052;8.550;2022-10-23T12:44:16;2.53;;;1.27;;
74512;SDS011;62992;52.052;8.550;2022-10-23T12:47:00;4.63;;;1.50;;
74512;SDS011;62992;52.052;8.550;2022-10-23T12:49:47;2.88;;;1.25;;
74512;SDS011;62992;52.052;8.550;2022-10-23T12:52:32;3.47;;;1.13;;
74512;SDS011;62992;52.052;8.550;2022-10-23T12:55:23;4.30;;;1.50;;
74512;SDS011;62992;52.052;8.550;2022-10-23T13:01:04;4.38;;;1.30;;
74512;SDS011;62992;52.052;8.550;2022-10-23T13:03:49;4.05;;;1.33;;
74512;SDS011;62992;52.052;8.550;2022-10-23T13:06:35;3.65;;;1.48;;
74512;SDS011;62992;52.052;8.550;2022-10-23T13:09:23;4.25;;;2.13;;
74512;SDS011;62992;52.052;8.550;2022-10-23T13:12:23;3.85;;;1.35;;
74512;SDS011;62992;52.052;8.550;2022-10-23T13:20:42;3.47;;;1.73;;
74512;SDS011;62992;52.052;8.550;2022-10-23T13:23:36;5.30;;;2.03;;
74512;SDS011;62992;52.052;8.550;2022-10-23T13:26:38;4.38;;;1.58;;
74512;SDS011;62992;52.052;8.550;2022-10-23T13:29:28;2.75;;;1.30;;
74512;SDS011;62992;52.052;8.550;2022-10-23T13:32:22;3.60;;;1.20;;
74512;SDS011;62992;52.052;8.550;2022-10-23T13:35:19;2.25;;;1.10;;
74512;SDS011;62992;52.052;8.550;2022-10-23T13:38:08;4.65;;;1.40;;
74512;SDS011;62992;52.052;8.550;2022-10-23T13:40:59;3.85;;;1.30;;
74512;SDS011;62992;52.052;8.550;2022-10-23T13:43:45;3.55;;;1.45;;
74512;SDS011;62992;52.052;8.550;2022-10-23T13:49:15;3.78;;;1.55;;
74512;SDS011;62992;52.052;8.550;2022-10-23T13:51:59;2.97;;;0.95;;
74512;SDS011;62992;52.052;8.550;2022-10-23T13:54:43;3.03;;;1.20;;
74512;SDS011;62992;52.052;8.550;2022-10-23T13:57:28;2.78;;;1.25;;
74512;SDS011;62992;52.052;8.550;2022-10-23T14:00:12;3.08;;;1.00;;
74512;SDS011;62992;52.052;8.550;2022-10-23T14:02:57;3.67;;;1.40;;
74512;SDS011;62992;52.052;8.550;2022-10-23T14:05:41;2.00;;;0.80;;
74512;SDS011;62992;52.052;8.550;2022-10-23T14:08:25;4.13;;;0.90;;
74512;SDS011;62992;52.052;8.550;2022-10-23T14:11:10;3.22;;;0.93;;
74512;SDS011;62992;52.052;8.550;2022-10-23T14:13:55;4.07;;;1.60;;
74512;SDS011;62992;52.052;8.550;2022-10-23T14:16:39;6.75;;;1.60;;
74512;SDS011;62992;52.052;8.550;2022-10-23T14:19:23;1.92;;;1.10;;
74512;SDS011;62992;52.052;8.550;2022-10-23T14:22:07;2.15;;;0.88;;
74512;SDS011;62992;52.052;8.550;2022-10-23T14:24:51;3.15;;;1.05;;
74512;SDS011;62992;52.052;8.550;2022-10-23T14:27:36;2.85;;;0.90;;
74512;SDS011;62992;52.052;8.550;2022-10-23T14:30:19;1.90;;;1.25;;
74512;SDS011;62992;52.052;8.550;2022-10-23T14:33:03;3.13;;;0.77;;
74512;SDS011;62992;52.052;8.550;2022-10-23T14:35:51;1.70;;;0.80;;
74512;SDS011;62992;52.052;8.550;2022-10-23T14:38:35;4.80;;;1.10;;
74512;SDS011;62992;52.052;8.550;2022-10-23T14:41:20;1.80;;;1.00;;
74512;SDS011;62992;52.052;8.550;2022-10-23T14:44:05;2.35;;;0.93;;
74512;SDS011;62992;52.052;8.550;2022-10-23T14:46:50;2.22;;;0.90;;
74512;SDS011;62992;52.052;8.550;2022-10-23T14:49:35;1.87;;;0.80;;
74512;SDS011;62992;52.052;8.550;2022-10-23T14:52:19;5.03;;;1.23;;
74512;SDS011;62992;52.052;8.550;2022-10-23T14:55:03;2.42;;;0.90;;
74512;SDS011;62992;52.052;8.550;2022-10-23T14:57:48;6.38;;;0.90;;
74512;SDS011;62992;52.052;8.550;2022-10-23T15:00:37;2.45;;;1.20;;
74512;SDS011;62992;52.052;8.550;2022-10-23T15:03:21;3.65;;;0.80;;
74512;SDS011;62992;52.052;8.550;2022-10-23T15:06:06;2.95;;;1.10;;
74512;SDS011;62992;52.052;8.550;2022-10-23T15:08:50;2.53;;;0.90;;
74512;SDS011;62992;52.052;8.550;2022-10-23T15:11:37;3.13;;;0.68;;
74512;SDS011;62992;52.052;8.550;2022-10-23T15:14:21;6.70;;;1.00;;
74512;SDS011;62992;52.052;8.550;2022-10-23T15:17:06;2.60;;;0.90;;
74512;SDS011;62992;52.052;8.550;2022-10-23T15:19:50;3.80;;;0.85;;
74512;SDS011;62992;52.052;8.550;2022-10-23T15:22:34;3.95;;;0.90;;
74512;SDS011;62992;52.052;8.550;2022-10-23T15:25:18;1.42;;;0.90;;
74512;SDS011;62992;52.052;8.550;2022-10-23T15:28:02;3.97;;;1.20;;
74512;SDS011;62992;52.052;8.550;2022-10-23T15:30:47;2.55;;;1.05;;
74512;SDS011;62992;52.052;8.550;2022-10-23T15:33:31;3.25;;;1.10;;
74512;SDS011;62992;52.052;8.550;2022-10-23T15:36:15;3.83;;;1.10;;
74512;SDS011;62992;52.052;8.550;2022-10-23T15:38:59;3.08;;;1.50;;
74512;SDS011;62992;52.052;8.550;2022-10-23T15:41:44;4.73;;;1.40;;
74512;SDS011;62992;52.052;8.550;2022-10-23T15:44:30;4.00;;;1.30;;
74512;SDS011;62992;52.052;8.550;2022-10-23T15:47:15;2.25;;;1.15;;
74512;SDS011;62992;52.052;8.550;2022-10-23T15:49:59;1.80;;;0.90;;
74512;SDS011;62992;52.052;8.550;2022-10-23T15:52:43;4.15;;;1.50;;
74512;SDS011;62992;52.052;8.550;2022-10-23T15:55:28;5.55;;;1.35;;
74512;SDS011;62992;52.052;8.550;2022-10-23T15:58:12;5.30;;;1.35;;
74512;SDS011;62992;52.052;8.550;2022-10-23T16:00:56;1.75;;;1.02;;
74512;SDS011;62992;52.052;8.550;2022-10-23T16:03:41;4.05;;;1.58;;
74512;SDS011;62992;52.052;8.550;2022-10-23T16:06:25;3.58;;;1.25;;
74512;SDS011;62992;52.052;8.550;2022-10-23T16:09:09;4.13;;;1.20;;
74512;SDS011;62992;52.052;8.550;2022-10-23T16:11:54;2.70;;;1.40;;
74512;SDS011;62992;52.052;8.550;2022-10-23T16:14:38;3.50;;;1.50;;
74512;SDS011;62992;52.052;8.550;2022-10-23T16:17:22;5.43;;;2.53;;
74512;SDS011;62992;52.052;8.550;2022-10-23T16:20:06;6.05;;;2.63;;
74512;SDS011;62992;52.052;8.550;2022-10-23T16:22:51;12.50;;;5.45;;
74512;SDS011;62992;52.052;8.550;2022-10-23T16:25:35;9.00;;;2.80;;
74512;SDS011;62992;52.052;8.550;2022-10-23T16:28:20;3.97;;;1.75;;
74512;SDS011;62992;52.052;8.550;2022-10-23T16:31:14;4.05;;;1.67;;
74512;SDS011;62992;52.052;8.550;2022-10-23T16:34:01;4.32;;;1.83;;
74512;SDS011;62992;52.052;8.550;2022-10-23T16:36:47;3.83;;;1.10;;
74512;SDS011;62992;52.052;8.550;2022-10-23T16:39:31;4.50;;;1.48;;
74512;SDS011;62992;52.052;8.550;2022-10-23T16:42:16;4.80;;;1.30;;
74512;SDS011;62992;52.052;8.550;2022-10-23T16:45:00;2.10;;;1.35;;
74512;SDS011;62992;52.052;8.550;2022-10-23T16:47:44;4.15;;;1.40;;
74512;SDS011;62992;52.052;8.550;2022-10-23T16:50:28;3.08;;;1.40;;
74512;SDS011;62992;52.052;8.550;2022-10-23T16:53:12;3.70;;;1.90;;
74512;SDS011;62992;52.052;8.550;2022-10-23T16:55:56;3.80;;;1.60;;
74512;SDS011;62992;52.052;8.550;2022-10-23T16:58:41;3.85;;;1.58;;
74512;SDS011;62992;52.052;8.550;2022-10-23T17:01:27;5.00;;;2.03;;
74512;SDS011;62992;52.052;8.550;2022-10-23T17:04:13;2.95;;;1.45;;
74512;SDS011;62992;52.052;8.550;2022-10-23T17:06:57;3.13;;;1.42;;
74512;SDS011;62992;52.052;8.550;2022-10-23T17:09:44;5.60;;;1.67;;
74512;SDS011;62992;52.052;8.550;2022-10-23T17:12:29;3.20;;;1.70;;
74512;SDS011;62992;52.052;8.550;2022-10-23T17:15:13;3.00;;;1.80;;
74512;SDS011;62992;52.052;8.550;2022-10-23T17:17:57;6.15;;;1.50;;
74512;SDS011;62992;52.052;8.550;2022-10-23T17:20:41;2.85;;;1.30;;
74512;SDS011;62992;52.052;8.550;2022-10-23T17:23:26;4.13;;;1.70;;
74512;SDS011;62992;52.052;8.550;2022-10-23T17:26:12;4.15;;;1.42;;
74512;SDS011;62992;52.052;8.550;2022-10-23T17:28:58;3.90;;;1.77;;
74512;SDS011;62992;52.052;8.550;2022-10-23T17:31:44;3.30;;;1.75;;
74512;SDS011;62992;52.052;8.550;2022-10-23T17:34:30;4.07;;;1.73;;
74512;SDS011;62992;52.052;8.550;2022-10-23T17:37:14;5.75;;;1.80;;
74512;SDS011;62992;52.052;8.550;2022-10-23T17:39:59;4.15;;;1.70;;
74512;SDS011;62992;52.052;8.550;2022-10-23T17:42:44;3.03;;;1.97;;
74512;SDS011;62992;52.052;8.550;2022-10-23T17:45:28;4.28;;;2.33;;
74512;SDS011;62992;52.052;8.550;2022-10-23T17:48:16;8.32;;;3.80;;
74512;SDS011;62992;52.052;8.550;2022-10-23T17:51:01;6.55;;;3.10;;
74512;SDS011;62992;52.052;8.550;2022-10-23T17:53:46;5.00;;;2.63;;
74512;SDS011;62992;52.052;8.550;2022-10-23T17:56:32;6.28;;;3.60;;
74512;SDS011;62992;52.052;8.550;2022-10-23T17:59:19;8.52;;;4.13;;
74512;SDS011;62992;52.052;8.550;2022-10-23T18:02:04;8.50;;;4.30;;
74512;SDS011;62992;52.052;8.550;2022-10-23T18:04:48;6.63;;;3.03;;
74512;SDS011;62992;52.052;8.550;2022-10-23T18:07:32;4.43;;;2.05;;
74512;SDS011;62992;52.052;8.550;2022-10-23T18:10:16;4.53;;;1.90;;
74512;SDS011;62992;52.052;8.550;2022-10-23T18:13:00;9.43;;;1.95;;
74512;SDS011;62992;52.052;8.550;2022-10-23T18:15:44;7.40;;;2.63;;
74512;SDS011;62992;52.052;8.550;2022-10-23T18:18:29;6.15;;;1.88;;
74512;SDS011;62992;52.052;8.550;2022-10-23T18:21:14;5.03;;;2.00;;
74512;SDS011;62992;52.052;8.550;2022-10-23T18:23:59;6.18;;;1.92;;
74512;SDS011;62992;52.052;8.550;2022-10-23T18:26:44;3.63;;;1.52;;
74512;SDS011;62992;52.052;8.550;2022-10-23T18:29:30;4.32;;;1.88;;
74512;SDS011;62992;52.052;8.550;2022-10-23T18:32:14;2.47;;;1.60;;
74512;SDS011;62992;52.052;8.550;2022-10-23T18:34:58;3.28;;;1.70;;
74512;SDS011;62992;52.052;8.550;2022-10-23T18:37:42;3.35;;;1.60;;
74512;SDS011;62992;52.052;8.550;2022-10-23T18:40:27;4.95;;;2.10;;
74512;SDS011;62992;52.052;8.550;2022-10-23T18:43:11;7.65;;;2.05;;
74512;SDS011;62992;52.052;8.550;2022-10-23T18:45:56;7.63;;;1.80;;
74512;SDS011;62992;52.052;8.550;2022-10-23T18:48:40;8.98;;;2.60;;
74512;SDS011;62992;52.052;8.550;2022-10-23T18:51:26;7.00;;;2.77;;
74512;SDS011;62992;52.052;8.550;2022-10-23T18:54:15;6.65;;;2.53;;
74512;SDS011;62992;52.052;8.550;2022-10-23T18:57:01;9.00;;;2.20;;
74512;SDS011;62992;52.052;8.550;2022-10-23T18:59:46;5.93;;;1.92;;